Time;durP1;ratioP1;P1;durP2;ratioP2;P2;SDS_P1;SDS_P2;PMS_P1;PMS_P2;Temp;Humidity;BMP_temperature;BMP_pressure;BME280_temperature;BME280_humidity;BME280_pressure;Samples;Min_cycle;Max_cycle;Signal;HPM_P1;HPM_P2
2023/06/03 00:00:41;;;;;;;;;;;;;;;17.46;100.00;95923.06;5032336;28;19925;-72
2023/06/03 00:03:08;;;;;;;;;;;;;;;17.41;100.00;95926.66;5027589;28;19931;-72
2023/06/03 00:05:35;;;;;;;;;;;;;;;17.35;100.00;95928.59;5028673;28;19924;-71
2023/06/03 00:08:03;;;;;;;;;;;;;;;17.33;100.00;95930.81;5032241;28;19964;-71
2023/06/03 00:10:30;;;;;;;;;;;;;;;17.28;100.00;95922.63;5040168;28;19925;-71
2023/06/03 00:12:56;;;;;;;;;;;;;;;17.25;100.00;95928.69;5037078;28;19940;-72
2023/06/03 00:15:23;;;;;;;;;;;;;;;17.12;100.00;95933.91;5031815;28;19931;-72
2023/06/03 00:17:51;;;;;;;;;;;;;;;17.03;100.00;95941.88;5041690;28;19932;-72
2023/06/03 00:20:18;;;;;;;;;;;;;;;17.01;100.00;95944.09;5032285;28;19931;-71
2023/06/03 00:22:46;;;;;;;;;;;;;;;17.02;100.00;95946.50;5030748;28;19932;-71
2023/06/03 00:25:15;;;;;;;;;;;;;;;17.08;100.00;95944.59;5029689;28;19925;-71
2023/06/03 00:27:43;;;;;;;;;;;;;;;17.12;100.00;95942.09;5025537;28;19925;-71
2023/06/03 00:30:10;;;;;;;;;;;;;;;17.07;100.00;95951.16;5051739;28;20007;-71
2023/06/03 00:32:37;;;;;;;;;;;;;;;17.03;100.00;95952.78;5032122;28;19925;-73
2023/06/03 00:35:04;;;;;;;;;;;;;;;16.91;100.00;95950.41;5045758;28;19960;-72
2023/06/03 00:37:31;;;;;;;;;;;;;;;16.89;100.00;95946.31;5049168;28;19936;-71
2023/06/03 00:39:58;;;;;;;;;;;;;;;16.85;100.00;95947.97;5019218;28;19925;-71
2023/06/03 00:42:26;;;;;;;;;;;;;;;16.85;100.00;95947.97;5039094;28;19924;-71
2023/06/03 00:44:53;;;;;;;;;;;;;;;16.78;100.00;95950.19;5028682;28;19925;-71
2023/06/03 00:47:21;;;;;;;;;;;;;;;16.73;100.00;95952.94;5027440;28;19925;-71
2023/06/03 00:49:48;;;;;;;;;;;;;;;16.78;100.00;95956.44;5028786;28;19947;-71
2023/06/03 00:52:15;;;;;;;;;;;;;;;16.79;100.00;95960.00;5050117;28;19933;-72
2023/06/03 00:54:42;;;;;;;;;;;;;;;16.76;100.00;95955.13;5028487;28;19925;-72
2023/06/03 00:57:10;;;;;;;;;;;;;;;16.75;100.00;95950.75;5028146;28;19925;-71
2023/06/03 00:59:38;;;;;;;;;;;;;;;16.69;100.00;95958.13;5040103;28;19935;-73
2023/06/03 01:02:05;;;;;;;;;;;;;;;16.63;100.00;95954.59;5025310;28;19925;-71
2023/06/03 01:04:32;;;;;;;;;;;;;;;16.61;100.00;95945.06;5026728;28;19944;-71
2023/06/03 01:07:06;;;;;;;;;;;;;;;16.60;100.00;95941.47;5028325;28;19940;-70
2023/06/03 01:09:38;;;;;;;;;;;;;;;16.55;100.00;95941.50;5024591;28;20009;-71
2023/06/03 01:12:10;;;;;;;;;;;;;;;16.51;100.00;95942.31;5027242;28;19925;-75
2023/06/03 01:14:43;;;;;;;;;;;;;;;16.45;100.00;95941.53;5034932;28;19968;-71
2023/06/03 01:17:10;;;;;;;;;;;;;;;16.46;100.00;95945.91;5032826;28;20001;-71
2023/06/03 01:19:47;;;;;;;;;;;;;;;16.48;100.00;95948.34;5025927;28;19952;-71
2023/06/03 01:22:14;;;;;;;;;;;;;;;16.47;100.00;95953.00;5021474;28;19928;-72
2023/06/03 01:24:43;;;;;;;;;;;;;;;16.53;100.00;95953.78;5020998;28;19925;-72
2023/06/03 01:27:11;;;;;;;;;;;;;;;16.55;100.00;95951.59;5023087;28;19929;-71
2023/06/03 01:29:39;;;;;;;;;;;;;;;16.50;100.00;95949.69;5042359;28;19925;-71
2023/06/03 01:32:06;;;;;;;;;;;;;;;16.44;100.00;95949.97;5040239;28;19924;-73
2023/06/03 01:34:34;;;;;;;;;;;;;;;16.45;100.00;95947.00;5048204;28;19933;-74
2023/06/03 01:37:00;;;;;;;;;;;;;;;16.50;100.00;95944.25;5022248;28;20148;-71
2023/06/03 01:39:27;;;;;;;;;;;;;;;16.52;100.00;95952.97;5028387;28;19928;-71
2023/06/03 01:41:56;;;;;;;;;;;;;;;16.47;100.00;95953.00;5032843;28;19929;-71
2023/06/03 01:44:24;;;;;;;;;;;;;;;16.47;100.00;95961.16;5028971;28;19929;-71
2023/06/03 01:46:51;;;;;;;;;;;;;;;16.39;100.00;95959.00;5033959;28;19933;-72
2023/06/03 01:49:19;;;;;;;;;;;;;;;16.40;100.00;95962.53;5031707;28;19929;-73
2023/06/03 01:51:46;;;;;;;;;;;;;;;16.40;100.00;95962.53;5029615;28;19998;-71
2023/06/03 01:54:13;;;;;;;;;;;;;;;16.36;100.00;95959.53;5024398;28;19928;-71
2023/06/03 01:56:42;;;;;;;;;;;;;;;16.29;100.00;95961.75;5031674;28;19951;-71
2023/06/03 01:59:11;;;;;;;;;;;;;;;16.26;100.00;95968.56;5045833;28;19925;-72
2023/06/03 02:01:43;;;;;;;;;;;;;;;16.22;100.00;95964.75;5035476;28;19931;-72
2023/06/03 02:04:10;;;;;;;;;;;;;;;16.16;100.00;95959.59;5032590;28;19925;-71
2023/06/03 02:06:37;;;;;;;;;;;;;;;16.18;100.00;95965.56;5030363;28;19932;-72
2023/06/03 02:09:03;;;;;;;;;;;;;;;16.14;100.00;95961.78;5027819;28;19998;-71
2023/06/03 02:11:31;;;;;;;;;;;;;;;16.15;100.00;95969.69;5035231;28;19935;-71
2023/06/03 02:13:58;;;;;;;;;;;;;;;16.16;100.00;95965.84;5035628;28;19925;-71
2023/06/03 02:16:27;;;;;;;;;;;;;;;16.18;100.00;95968.28;5026550;28;20011;-72
2023/06/03 02:18:54;;;;;;;;;;;;;;;16.16;100.00;95967.78;5027013;28;20016;-73
2023/06/03 02:21:21;;;;;;;;;;;;;;;16.09;100.00;95975.38;5028933;28;19932;-71
2023/06/03 02:23:50;;;;;;;;;;;;;;;16.02;100.00;95969.41;5027145;28;19925;-72
2023/06/03 02:26:17;;;;;;;;;;;;;;;15.95;100.00;95971.59;5046004;28;19924;-72
2023/06/03 02:28:45;;;;;;;;;;;;;;;15.91;100.00;95984.13;5029820;28;19933;-71
2023/06/03 02:31:12;;;;;;;;;;;;;;;15.94;100.00;95984.38;5033947;28;19943;-71
2023/06/03 02:33:40;;;;;;;;;;;;;;;15.89;100.00;95982.50;5032908;28;19968;-71
2023/06/03 02:36:07;;;;;;;;;;;;;;;15.91;100.00;95989.56;5040212;28;19962;-71
2023/06/03 02:38:34;;;;;;;;;;;;;;;15.90;100.00;95994.22;5033379;28;19925;-71
2023/06/03 02:41:01;;;;;;;;;;;;;;;15.84;100.00;95993.38;5029549;28;19936;-73
2023/06/03 02:43:27;;;;;;;;;;;;;;;15.75;100.00;95992.28;5043140;28;20016;-71
2023/06/03 02:45:54;;;;;;;;;;;;;;;15.62;100.00;95992.00;5030615;28;19968;-72
2023/06/03 02:48:21;;;;;;;;;;;;;;;15.51;100.00;95991.13;5030228;28;19924;-72
2023/06/03 02:50:49;;;;;;;;;;;;;;;15.45;100.00;95989.50;5034766;28;19964;-71
2023/06/03 02:53:17;;;;;;;;;;;;;;;15.44;100.00;95985.13;5034613;28;19931;-72
2023/06/03 02:55:45;;;;;;;;;;;;;;;15.43;100.00;95980.78;5033079;28;19932;-72
2023/06/03 02:58:12;;;;;;;;;;;;;;;15.50;100.00;95979.44;5030409;28;19925;-71
2023/06/03 03:00:40;;;;;;;;;;;;;;;15.55;100.00;95986.84;5032681;28;19925;-74
2023/06/03 03:03:07;;;;;;;;;;;;;;;15.60;100.00;95986.81;5030781;28;19925;-71
2023/06/03 03:05:34;;;;;;;;;;;;;;;15.61;100.00;95985.75;5044162;28;19925;-72
2023/06/03 03:08:03;;;;;;;;;;;;;;;15.63;100.00;95996.34;5048454;28;19929;-71
2023/06/03 03:10:30;;;;;;;;;;;;;;;15.61;100.00;95995.81;5028724;28;20132;-72
2023/06/03 03:12:57;;;;;;;;;;;;;;;15.47;100.00;96003.66;5029028;28;19983;-71
2023/06/03 03:15:24;;;;;;;;;;;;;;;15.36;100.00;96002.00;5025328;28;19925;-71
2023/06/03 03:17:53;;;;;;;;;;;;;;;15.33;100.00;96000.63;5032821;28;19988;-72
2023/06/03 03:20:20;;;;;;;;;;;;;;;15.35;100.00;95992.19;5032331;28;19938;-71
2023/06/03 03:22:47;;;;;;;;;;;;;;;15.35;100.00;95993.00;5024831;28;19932;-71
2023/06/03 03:25:20;;;;;;;;;;;;;;;15.38;100.00;95997.09;5031882;28;19931;-72
2023/06/03 03:27:47;;;;;;;;;;;;;;;15.31;100.00;95991.91;5032047;28;19978;-71
2023/06/03 03:30:14;;;;;;;;;;;;;;;15.26;100.00;96004.69;5032587;28;19933;-71
2023/06/03 03:32:42;;;;;;;;;;;;;;;15.26;100.00;96000.06;5032365;28;19925;-71
2023/06/03 03:35:15;;;;;;;;;;;;;;;15.30;100.00;96001.19;5031145;28;19971;-71
2023/06/03 03:37:44;;;;;;;;;;;;;;;15.34;100.00;96006.88;5033475;28;19928;-71
2023/06/03 03:40:19;;;;;;;;;;;;;;;15.29;100.00;96004.16;5024023;28;19925;-71
2023/06/03 03:42:48;;;;;;;;;;;;;;;15.33;100.00;96002.50;5035869;28;19926;-71
2023/06/03 03:45:17;;;;;;;;;;;;;;;15.29;100.00;96004.16;5032926;28;19925;-71
2023/06/03 03:47:44;;;;;;;;;;;;;;;15.32;100.00;96007.13;5047575;28;19925;-71
2023/06/03 03:50:27;;;;;;;;;;;;;;;15.33;100.00;96005.25;5032972;28;19948;-72
2023/06/03 03:52:55;;;;;;;;;;;;;;;15.37;100.00;96000.91;5028234;28;19948;-72
2023/06/03 03:55:23;;;;;;;;;;;;;;;15.38;100.00;95994.38;5028482;28;19940;-71
2023/06/03 03:57:50;;;;;;;;;;;;;;;15.42;100.00;96004.44;5042570;28;19925;-71
2023/06/03 04:00:19;;;;;;;;;;;;;;;15.45;100.00;95994.94;5032465;28;19925;-72
2023/06/03 04:02:47;;;;;;;;;;;;;;;15.47;100.00;96006.38;5044626;28;19946;-72
2023/06/03 04:05:15;;;;;;;;;;;;;;;15.45;100.00;96000.38;5032464;28;19983;-72
2023/06/03 04:07:46;;;;;;;;;;;;;;;15.48;100.00;96000.63;5031943;28;20040;-71
2023/06/03 04:10:12;;;;;;;;;;;;;;;15.54;100.00;95997.97;5028921;28;19928;-71
2023/06/03 04:12:40;;;;;;;;;;;;;;;15.56;100.00;96003.97;5028388;28;19925;-71
2023/06/03 04:15:12;;;;;;;;;;;;;;;15.51;100.00;95996.56;5028418;28;19956;-71
2023/06/03 04:17:40;;;;;;;;;;;;;;;15.52;100.00;95998.22;5031281;28;19974;-72
2023/06/03 04:20:10;;;;;;;;;;;;;;;15.56;100.00;96004.78;5033262;28;19925;-72
2023/06/03 04:22:37;;;;;;;;;;;;;;;15.57;100.00;95992.78;5030251;28;19929;-71
2023/06/03 04:25:08;;;;;;;;;;;;;;;15.57;100.00;95995.53;5026699;28;19933;-71
2023/06/03 04:27:49;;;;;;;;;;;;;;;15.54;100.00;96003.41;5039397;28;19929;-71
2023/06/03 04:30:17;;;;;;;;;;;;;;;15.51;100.00;96007.47;5041125;28;19932;-72
2023/06/03 04:32:44;;;;;;;;;;;;;;;15.52;100.00;96009.09;5026719;28;19932;-71
2023/06/03 04:35:12;;;;;;;;;;;;;;;15.58;100.00;96012.66;5019208;28;19925;-72
2023/06/03 04:37:42;;;;;;;;;;;;;;;15.64;100.00;96006.16;5018104;28;19932;-71
2023/06/03 04:40:13;;;;;;;;;;;;;;;15.67;100.00;96000.97;5026726;28;19984;-72
2023/06/03 04:42:41;;;;;;;;;;;;;;;15.59;100.00;96008.84;5028944;28;19924;-72
2023/06/03 04:45:10;;;;;;;;;;;;;;;15.51;100.00;96007.47;5043445;28;19928;-72
2023/06/03 04:47:41;;;;;;;;;;;;;;;15.42;100.00;96006.34;5034456;28;19925;-73
2023/06/03 04:50:09;;;;;;;;;;;;;;;15.32;100.00;96003.59;5024030;28;19933;-72
2023/06/03 04:52:37;;;;;;;;;;;;;;;15.24;100.00;96002.22;5027672;28;20024;-72
2023/06/03 04:55:07;;;;;;;;;;;;;;;15.23;100.00;96006.03;5025289;28;19929;-72
2023/06/03 04:57:37;;;;;;;;;;;;;;;15.31;100.00;95996.56;5042340;28;19956;-71
2023/06/03 05:00:07;;;;;;;;;;;;;;;15.41;100.00;95996.56;5027743;28;19929;-72
2023/06/03 05:02:36;;;;;;;;;;;;;;;15.50;100.00;95997.66;5031259;28;19943;-74
2023/06/03 05:05:04;;;;;;;;;;;;;;;15.55;100.00;96002.34;5019975;28;20023;-72
2023/06/03 05:07:32;;;;;;;;;;;;;;;15.56;100.00;96007.50;5030417;28;19925;-72
2023/06/03 05:10:00;;;;;;;;;;;;;;;15.54;100.00;96006.13;5033122;28;19929;-72
2023/06/03 05:12:27;;;;;;;;;;;;;;;15.49;100.00;96001.47;5034096;28;20007;-72
2023/06/03 05:14:54;;;;;;;;;;;;;;;15.51;100.00;95999.28;5034518;28;20113;-73
2023/06/03 05:17:21;;;;;;;;;;;;;;;15.58;100.00;95999.88;5032372;28;19931;-72
2023/06/03 05:19:50;;;;;;;;;;;;;;;15.63;100.00;96008.06;5031144;28;19932;-75
2023/06/03 05:22:17;;;;;;;;;;;;;;;15.65;100.00;96003.16;5031926;28;19931;-72
2023/06/03 05:24:45;;;;;;;;;;;;;;;15.59;100.00;96003.41;5034109;28;19987;-73
2023/06/03 05:27:12;;;;;;;;;;;;;;;15.56;100.00;96007.50;5038536;28;19929;-71
2023/06/03 05:29:39;;;;;;;;;;;;;;;15.51;100.00;96002.00;5038496;28;20026;-71
2023/06/03 05:32:06;;;;;;;;;;;;;;;15.49;100.00;95999.56;5028264;28;19956;-71
2023/06/03 05:34:34;;;;;;;;;;;;;;;15.35;100.00;95998.44;5029337;28;19935;-71
2023/06/03 05:37:05;;;;;;;;;;;;;;;15.28;100.00;95991.63;5020940;28;19925;-71
2023/06/03 05:39:31;;;;;;;;;;;;;;;15.31;100.00;95996.56;5032188;28;19931;-72
2023/06/03 05:41:59;;;;;;;;;;;;;;;15.38;100.00;95994.38;5042900;28;19925;-72
2023/06/03 05:44:26;;;;;;;;;;;;;;;15.44;100.00;95998.75;5031622;28;20018;-71
2023/06/03 05:46:53;;;;;;;;;;;;;;;15.46;100.00;96004.75;5034361;28;19994;-71
2023/06/03 05:49:20;;;;;;;;;;;;;;;15.46;100.00;96002.03;5029798;28;19939;-72
2023/06/03 05:51:48;;;;;;;;;;;;;;;15.50;100.00;96001.19;5045530;28;19932;-72
2023/06/03 05:54:17;;;;;;;;;;;;;;;15.55;100.00;96005.88;5034365;28;20019;-72
2023/06/03 05:56:43;;;;;;;;;;;;;;;15.59;100.00;96009.69;5033959;28;19925;-72
2023/06/03 05:59:10;;;;;;;;;;;;;;;15.59;100.00;96004.22;5027235;28;19924;-71
2023/06/03 06:01:40;;;;;;;;;;;;;;;15.54;100.00;96004.25;5032433;28;19925;-71
2023/06/03 06:04:07;;;;;;;;;;;;;;;15.50;100.00;96006.63;5033214;28;19956;-71
2023/06/03 06:06:33;;;;;;;;;;;;;;;15.53;100.00;96002.56;5030361;28;19924;-72
2023/06/03 06:09:00;;;;;;;;;;;;;;;15.54;100.00;96001.53;5034694;28;19951;-73
2023/06/03 06:11:29;;;;;;;;;;;;;;;15.56;100.00;96003.97;5025097;28;19925;-71
2023/06/03 06:13:55;;;;;;;;;;;;;;;15.56;100.00;96010.25;5029372;28;19924;-73
2023/06/03 06:16:23;;;;;;;;;;;;;;;15.56;100.00;96002.06;5045515;28;19925;-71
2023/06/03 06:18:50;;;;;;;;;;;;;;;15.58;100.00;96005.31;5048231;28;19925;-72
2023/06/03 06:21:17;;;;;;;;;;;;;;;15.51;100.00;95997.41;5040467;28;19931;-71
2023/06/03 06:23:45;;;;;;;;;;;;;;;15.47;100.00;95996.31;5028355;28;19925;-73
2023/06/03 06:26:14;;;;;;;;;;;;;;;15.52;100.00;96003.66;5032899;28;19928;-71
2023/06/03 06:28:42;;;;;;;;;;;;;;;15.61;100.00;96006.69;5031112;28;19925;-71
2023/06/03 06:31:11;;;;;;;;;;;;;;;15.66;100.00;96007.50;5024864;28;19932;-71
2023/06/03 06:33:47;;;;;;;;;;;;;;;15.63;100.00;96009.97;5024697;28;20016;-71
2023/06/03 06:36:29;;;;;;;;;;;;;;;15.64;100.00;96009.72;5025637;28;20018;-71
2023/06/03 06:38:57;;;;;;;;;;;;;;;15.64;100.00;96006.16;5021836;28;19932;-71
2023/06/03 06:41:26;;;;;;;;;;;;;;;15.61;100.00;96006.69;5021755;28;19937;-71
2023/06/03 06:43:55;;;;;;;;;;;;;;;15.49;100.00;96004.19;5022145;28;19964;-71
2023/06/03 06:46:23;;;;;;;;;;;;;;;15.50;100.00;96005.81;5029390;28;19949;-74
2023/06/03 06:48:50;;;;;;;;;;;;;;;15.54;100.00;96001.53;5028631;28;20012;-72
2023/06/03 06:51:19;;;;;;;;;;;;;;;15.64;100.00;96001.53;5038092;28;19925;-71
2023/06/03 06:53:52;;;;;;;;;;;;;;;15.73;100.00;96008.09;5017885;28;19971;-71
2023/06/03 06:56:21;;;;;;;;;;;;;;;15.77;100.00;96006.44;5018751;28;19925;-72
2023/06/03 06:58:55;;;;;;;;;;;;;;;15.78;100.00;96002.63;5024045;28;19929;-71
2023/06/03 07:01:22;;;;;;;;;;;;;;;15.82;100.00;96003.72;5027305;28;19998;-71
2023/06/03 07:03:52;;;;;;;;;;;;;;;15.87;100.00;96001.00;5039026;28;19964;-71
2023/06/03 07:06:19;;;;;;;;;;;;;;;15.93;100.00;96001.00;5028317;28;19939;-73
2023/06/03 07:08:49;;;;;;;;;;;;;;;15.89;100.00;95996.09;5023581;28;20004;-72
2023/06/03 07:11:17;;;;;;;;;;;;;;;15.86;100.00;95991.19;5025334;28;19948;-72
2023/06/03 07:13:51;;;;;;;;;;;;;;;16.08;100.00;95990.09;5022902;28;19925;-72
2023/06/03 07:16:21;;;;;;;;;;;;;;;16.51;100.00;95994.94;5039690;28;19925;-71
2023/06/03 07:18:50;;;;;;;;;;;;;;;16.93;100.00;95991.81;5032613;28;19948;-71
2023/06/03 07:21:18;;;;;;;;;;;;;;;17.39;100.00;95997.88;5028467;28;19999;-72
2023/06/03 07:23:46;;;;;;;;;;;;;;;17.75;100.00;95994.97;5031092;28;20012;-71
2023/06/03 07:26:13;;;;;;;;;;;;;;;18.10;100.00;95999.34;5027806;28;20012;-72
2023/06/03 07:28:40;;;;;;;;;;;;;;;18.36;100.00;95994.47;5019474;28;20020;-72
2023/06/03 07:31:13;;;;;;;;;;;;;;;18.57;100.00;96000.56;5033436;28;19925;-71
2023/06/03 07:33:49;;;;;;;;;;;;;;;18.77;100.00;95989.41;5025121;28;19937;-72
2023/06/03 07:36:19;;;;;;;;;;;;;;;19.13;100.00;95998.03;5029381;28;20032;-73
2023/06/03 07:39:02;;;;;;;;;;;;;;;19.43;100.00;95997.59;5029977;28;19936;-71
2023/06/03 07:41:38;;;;;;;;;;;;;;;19.97;100.00;95997.13;5023446;28;20048;-71
2023/06/03 07:44:07;;;;;;;;;;;;;;;20.36;100.00;95999.50;5028351;28;19929;-71
2023/06/03 07:46:42;;;;;;;;;;;;;;;20.54;96.23;95997.81;5027241;28;19925;-72
2023/06/03 07:49:11;;;;;;;;;;;;;;;20.63;96.04;95997.94;5035325;28;19925;-71
2023/06/03 07:51:42;;;;;;;;;;;;;;;20.82;96.66;96001.44;5015913;28;20031;-71
2023/06/03 07:54:10;;;;;;;;;;;;;;;21.05;94.93;95991.38;5025793;28;20021;-71
2023/06/03 07:56:37;;;;;;;;;;;;;;;21.25;94.90;95987.44;5026549;28;19929;-71
2023/06/03 07:59:04;;;;;;;;;;;;;;;21.30;93.30;95995.56;5023887;28;19956;-73
2023/06/03 08:01:31;;;;;;;;;;;;;;;21.34;94.68;95993.84;5028292;28;19948;-71
2023/06/03 08:03:58;;;;;;;;;;;;;;;21.30;94.43;95992.81;5021765;28;19925;-72
2023/06/03 08:06:27;;;;;;;;;;;;;;;21.43;94.15;96002.97;5022917;28;19926;-72
2023/06/03 08:08:56;;;;;;;;;;;;;;;21.50;94.64;96003.38;5025479;28;19999;-71
2023/06/03 08:11:23;;;;;;;;;;;;;;;21.64;92.69;96001.38;5018747;28;19926;-72
2023/06/03 08:13:50;;;;;;;;;;;;;;;21.64;90.44;95998.66;5023426;28;20268;-73
2023/06/03 08:16:19;;;;;;;;;;;;;;;21.65;89.19;96005.78;5025069;28;19925;-72
2023/06/03 08:18:50;;;;;;;;;;;;;;;21.58;88.10;96005.38;5025724;28;19936;-72
2023/06/03 08:21:18;;;;;;;;;;;;;;;21.63;88.98;96002.50;5024178;28;19925;-72
2023/06/03 08:23:46;;;;;;;;;;;;;;;21.88;87.25;95999.19;5025231;28;19925;-73
2023/06/03 08:26:14;;;;;;;;;;;;;;;22.04;87.78;95996.91;5022254;28;19925;-72
2023/06/03 08:28:41;;;;;;;;;;;;;;;22.14;86.36;95993.09;5020697;28;19933;-72
2023/06/03 08:31:09;;;;;;;;;;;;;;;22.19;87.43;96001.25;5025199;28;19925;-73
2023/06/03 08:33:35;;;;;;;;;;;;;;;22.29;84.76;96003.72;5042925;28;19967;-72
2023/06/03 08:36:02;;;;;;;;;;;;;;;22.24;86.02;95996.44;5024667;28;19994;-73
2023/06/03 08:38:29;;;;;;;;;;;;;;;22.41;86.70;96009.47;5018117;28;19972;-72
2023/06/03 08:40:57;;;;;;;;;;;;;;;22.31;84.21;95997.91;5019448;28;19934;-73
2023/06/03 08:43:28;;;;;;;;;;;;;;;22.25;85.49;95998.06;5023714;28;19932;-72
2023/06/03 08:46:02;;;;;;;;;;;;;;;22.20;84.64;96002.88;5025309;28;19934;-72
2023/06/03 08:48:33;;;;;;;;;;;;;;;22.15;85.42;95997.47;5025580;28;19925;-72
2023/06/03 08:51:04;;;;;;;;;;;;;;;22.09;84.39;96005.06;5021119;28;19925;-72
2023/06/03 08:53:36;;;;;;;;;;;;;;;22.20;85.61;95997.38;5023391;28;19925;-72
2023/06/03 08:56:05;;;;;;;;;;;;;;;22.36;84.35;96004.13;5018361;28;20543;-72
2023/06/03 08:58:37;;;;;;;;;;;;;;;22.50;83.24;95993.84;5035739;28;19933;-73
2023/06/03 09:01:04;;;;;;;;;;;;;;;22.38;83.17;95996.34;5012428;28;19937;-73
2023/06/03 09:03:32;;;;;;;;;;;;;;;22.33;82.80;95995.69;5028239;28;19964;-73
2023/06/03 09:06:01;;;;;;;;;;;;;;;22.43;82.94;95996.22;5020061;28;19968;-72
2023/06/03 09:08:29;;;;;;;;;;;;;;;22.55;81.57;95996.44;5021959;28;20048;-73
2023/06/03 09:10:56;;;;;;;;;;;;;;;22.55;81.68;95995.63;5019280;28;19933;-73
2023/06/03 09:13:24;;;;;;;;;;;;;;;22.64;82.15;95991.00;5022637;28;19946;-72
2023/06/03 09:15:52;;;;;;;;;;;;;;;22.93;80.95;95990.53;5027334;28;19989;-72
2023/06/03 09:18:19;;;;;;;;;;;;;;;23.08;78.32;96000.31;5038720;28;20024;-75
2023/06/03 09:20:46;;;;;;;;;;;;;;;23.03;78.91;95984.75;5029130;28;20088;-72
2023/06/03 09:23:13;;;;;;;;;;;;;;;23.14;77.54;95986.06;5019655;28;19925;-73
2023/06/03 09:25:40;;;;;;;;;;;;;;;23.12;76.48;95988.34;5024466;28;19929;-73
2023/06/03 09:28:06;;;;;;;;;;;;;;;23.04;77.95;95985.56;5023688;28;19932;-72
2023/06/03 09:30:36;;;;;;;;;;;;;;;23.09;77.70;95988.97;5029299;28;19948;-72
2023/06/03 09:33:03;;;;;;;;;;;;;;;23.17;78.64;95973.59;5025240;28;19949;-72
2023/06/03 09:35:30;;;;;;;;;;;;;;;23.42;80.09;95983.88;5023438;28;19932;-72
2023/06/03 09:38:01;;;;;;;;;;;;;;;23.62;78.14;95986.06;5026300;28;19933;-74
2023/06/03 09:40:29;;;;;;;;;;;;;;;23.71;77.52;95984.13;5025660;28;20012;-73
2023/06/03 09:42:55;;;;;;;;;;;;;;;23.77;75.52;95982.03;5025209;28;19970;-72
2023/06/03 09:45:23;;;;;;;;;;;;;;;23.74;76.95;95977.16;5046341;28;20210;-72
2023/06/03 09:47:51;;;;;;;;;;;;;;;23.77;74.01;95973.75;5031821;28;19971;-72
2023/06/03 09:50:18;;;;;;;;;;;;;;;23.56;76.37;95970.03;5025463;28;19931;-72
2023/06/03 09:52:45;;;;;;;;;;;;;;;23.59;73.17;95970.16;5025559;28;19926;-73
2023/06/03 09:55:11;;;;;;;;;;;;;;;23.73;75.68;95970.81;5017215;28;19925;-72
2023/06/03 09:57:38;;;;;;;;;;;;;;;23.81;75.63;95966.47;5019581;28;19925;-72
2023/06/03 10:00:07;;;;;;;;;;;;;;;24.13;75.84;95968.72;5024435;28;20030;-72
2023/06/03 10:02:35;;;;;;;;;;;;;;;24.14;71.58;95961.28;5029578;28;20187;-72
2023/06/03 10:05:03;;;;;;;;;;;;;;;24.08;73.20;95963.38;5020610;28;20018;-74
2023/06/03 10:07:30;;;;;;;;;;;;;;;24.17;76.16;95959.78;5031869;28;19924;-72
2023/06/03 10:10:04;;;;;;;;;;;;;;;24.33;73.96;95966.47;5033499;28;19928;-72
2023/06/03 10:12:32;;;;;;;;;;;;;;;24.35;72.05;95959.47;5020556;28;19925;-72
2023/06/03 10:14:59;;;;;;;;;;;;;;;24.38;70.82;95960.78;5030658;28;20179;-72
2023/06/03 10:17:27;;;;;;;;;;;;;;;24.40;71.15;95962.06;5053643;28;19978;-74
2023/06/03 10:19:54;;;;;;;;;;;;;;;24.25;71.44;95953.47;5030243;28;19947;-72
2023/06/03 10:22:23;;;;;;;;;;;;;;;24.40;69.37;95961.25;5047266;28;19947;-73
2023/06/03 10:24:50;;;;;;;;;;;;;;;24.59;70.33;95953.41;5045950;28;19929;-72
2023/06/03 10:27:18;;;;;;;;;;;;;;;24.69;68.86;95953.06;5038229;28;19929;-72
2023/06/03 10:29:45;;;;;;;;;;;;;;;24.80;67.36;95947.97;5046334;28;19955;-72
2023/06/03 10:32:14;;;;;;;;;;;;;;;24.77;66.67;95952.22;5033339;28;19966;-73
2023/06/03 10:34:42;;;;;;;;;;;;;;;24.77;66.39;95954.16;5056550;28;19946;-73
2023/06/03 10:37:09;;;;;;;;;;;;;;;24.93;64.56;95952.50;5032024;28;19932;-73
2023/06/03 10:39:37;;;;;;;;;;;;;;;25.03;64.92;95951.31;5042891;28;19952;-72
2023/06/03 10:42:05;;;;;;;;;;;;;;;25.00;65.29;95950.06;5043475;28;19979;-74
2023/06/03 10:44:32;;;;;;;;;;;;;;;25.15;67.05;95943.16;5027779;28;20011;-72
2023/06/03 10:47:01;;;;;;;;;;;;;;;25.08;65.49;95945.63;5021079;28;19995;-73
2023/06/03 10:49:29;;;;;;;;;;;;;;;25.22;65.21;95943.44;5023263;28;19925;-72
2023/06/03 10:52:10;;;;;;;;;;;;;;;25.20;63.54;95942.94;5030895;28;19932;-73
2023/06/03 10:54:44;;;;;;;;;;;;;;;25.24;65.89;95935.63;5020120;28;19928;-72
2023/06/03 10:57:13;;;;;;;;;;;;;;;25.33;64.02;95939.16;5026576;28;19925;-73
2023/06/03 10:59:41;;;;;;;;;;;;;;;25.44;64.19;95937.59;5019208;28;19929;-73
2023/06/03 11:02:08;;;;;;;;;;;;;;;25.54;64.07;95945.50;5060981;28;19975;-72
2023/06/03 11:04:36;;;;;;;;;;;;;;;25.57;64.67;95939.31;5046828;28;19925;-73
2023/06/03 11:07:04;;;;;;;;;;;;;;;25.46;65.04;95946.38;5032032;28;20011;-73
2023/06/03 11:09:32;;;;;;;;;;;;;;;25.06;64.52;95939.63;5045052;28;19968;-73
2023/06/03 11:12:06;;;;;;;;;;;;;;;24.80;64.73;95937.75;5029265;28;19925;-73
2023/06/03 11:14:52;;;;;;;;;;;;;;;24.85;66.83;95936.75;5030793;28;19924;-73
2023/06/03 11:17:19;;;;;;;;;;;;;;;25.02;66.39;95939.47;5031782;28;19955;-72
2023/06/03 11:19:50;;;;;;;;;;;;;;;25.08;65.60;95940.09;5028070;28;19975;-73
2023/06/03 11:22:37;;;;;;;;;;;;;;;25.34;64.74;95928.91;5030796;28;20011;-73
2023/06/03 11:25:04;;;;;;;;;;;;;;;25.62;63.65;95930.84;5031507;28;19988;-73
2023/06/03 11:27:32;;;;;;;;;;;;;;;25.60;64.45;95935.88;5049305;28;19925;-73
2023/06/03 11:29:59;;;;;;;;;;;;;;;25.57;63.49;95932.97;5042291;28;20016;-73
2023/06/03 11:32:28;;;;;;;;;;;;;;;25.38;66.10;95927.88;5024645;28;19932;-73
2023/06/03 11:35:10;;;;;;;;;;;;;;;24.98;64.89;95927.47;5023054;28;19972;-73
2023/06/03 11:37:52;;;;;;;;;;;;;;;25.15;66.00;95923.81;5037783;28;19929;-73
2023/06/03 11:40:20;;;;;;;;;;;;;;;25.24;65.53;95924.56;5028179;28;19955;-73
2023/06/03 11:43:02;;;;;;;;;;;;;;;25.39;65.05;95915.69;5019097;28;19932;-72
2023/06/03 11:45:32;;;;;;;;;;;;;;;25.57;64.75;95911.66;5031603;28;20015;-72
2023/06/03 11:48:01;;;;;;;;;;;;;;;25.69;64.07;95918.44;5030722;28;19925;-72
2023/06/03 11:50:33;;;;;;;;;;;;;;;26.09;64.47;95914.03;5037673;28;19931;-72
2023/06/03 11:53:00;;;;;;;;;;;;;;;26.19;62.95;95923.88;5023718;28;19948;-73
2023/06/03 11:55:28;;;;;;;;;;;;;;;26.27;61.20;95915.50;5042156;28;19940;-73
2023/06/03 11:57:56;;;;;;;;;;;;;;;26.30;61.73;95914.81;5032366;28;19924;-72
2023/06/03 12:00:23;;;;;;;;;;;;;;;26.25;62.18;95909.47;5032979;28;20019;-72
2023/06/03 12:02:53;;;;;;;;;;;;;;;25.87;62.46;95912.41;5026824;28;19924;-72
2023/06/03 12:05:20;;;;;;;;;;;;;;;25.48;64.36;95907.34;5033398;28;19951;-73
2023/06/03 12:07:53;;;;;;;;;;;;;;;25.52;66.44;95903.56;5024434;28;19928;-74
2023/06/03 12:10:21;;;;;;;;;;;;;;;25.77;63.85;95909.28;5041840;28;19932;-72
2023/06/03 12:12:51;;;;;;;;;;;;;;;25.58;65.11;95907.75;5029953;28;19929;-73
2023/06/03 12:15:18;;;;;;;;;;;;;;;25.39;65.85;95901.88;5025010;28;20066;-72
2023/06/03 12:17:45;;;;;;;;;;;;;;;25.42;63.79;95901.22;5028828;28;19933;-72
2023/06/03 12:20:24;;;;;;;;;;;;;;;25.66;64.87;95902.53;5028810;28;19992;-74
2023/06/03 12:22:58;;;;;;;;;;;;;;;25.86;62.84;95896.19;5028145;28;19925;-73
2023/06/03 12:25:25;;;;;;;;;;;;;;;26.03;63.24;95895.22;5027368;28;19928;-73
2023/06/03 12:27:54;;;;;;;;;;;;;;;26.06;63.59;95900.06;5029094;28;19925;-73
2023/06/03 12:30:30;;;;;;;;;;;;;;;26.28;62.15;95896.94;5046451;28;19932;-75
2023/06/03 12:32:58;;;;;;;;;;;;;;;26.27;62.78;95901.69;5023729;28;19980;-74
2023/06/03 12:35:26;;;;;;;;;;;;;;;26.07;63.21;95896.94;5027627;28;19984;-74
2023/06/03 12:38:06;;;;;;;;;;;;;;;25.80;62.12;95900.28;5046561;28;19932;-73
2023/06/03 12:40:33;;;;;;;;;;;;;;;25.74;62.89;95896.13;5015129;28;19932;-74
2023/06/03 12:43:01;;;;;;;;;;;;;;;25.68;64.32;95903.00;5032666;28;19925;-73
2023/06/03 12:45:27;;;;;;;;;;;;;;;25.60;66.92;95905.47;5030402;28;19932;-73
2023/06/03 12:47:55;;;;;;;;;;;;;;;25.40;67.60;95906.25;5027509;28;19925;-73